createdAt,value
2018-05-08T00:00:56.363Z,82.65
2018-05-08T00:02:05.300Z,82.18
2018-05-08T00:03:14.139Z,82.85
2018-05-08T00:04:22.982Z,82.85
2018-05-08T00:05:32.093Z,83.19
2018-05-08T00:06:40.930Z,83.04
2018-05-08T00:07:49.767Z,83.48
2018-05-08T00:08:58.979Z,83.48
2018-05-08T00:10:08.384Z,83.09
2018-05-08T00:11:17.493Z,83.29
2018-05-08T00:12:26.327Z,83.95
2018-05-08T00:13:35.263Z,84.34
2018-05-08T00:14:44.374Z,85.49
2018-05-08T00:15:53.211Z,85.3
2018-05-08T00:17:02.049Z,85.49
2018-05-08T00:18:10.886Z,86.07
2018-05-08T00:19:19.721Z,85.97
2018-05-08T00:20:28.557Z,86.25
2018-05-08T00:21:37.673Z,85.68
2018-05-08T00:22:46.783Z,86.54
2018-05-08T00:23:55.620Z,85.78
2018-05-08T00:25:04.506Z,86.54
2018-05-08T00:26:13.344Z,85.88
2018-05-08T00:27:22.181Z,86.64
2018-05-08T00:28:31.291Z,86.79
2018-05-08T00:29:40.417Z,86.21
2018-05-08T00:30:49.623Z,87.27
2018-05-08T00:31:58.464Z,87.17
2018-05-08T00:33:07.303Z,87.17
2018-05-08T00:34:16.413Z,86.88
2018-05-08T00:35:25.250Z,86.41
2018-05-08T00:36:34.139Z,86.88
2018-05-08T00:37:42.973Z,86.69
2018-05-08T00:38:52.095Z,87.37
2018-05-08T00:40:00.930Z,87.27
2018-05-08T00:41:10.041Z,87.17
2018-05-08T00:42:18.930Z,87.37
2018-05-08T00:43:27.766Z,87.84
2018-05-08T00:44:36.603Z,87.37
2018-05-08T00:45:45.440Z,86.88
2018-05-08T00:46:54.559Z,87.27
2018-05-08T00:48:03.545Z,86.69
2018-05-08T00:49:12.664Z,87.37
2018-05-08T00:50:21.775Z,87.27
2018-05-08T00:51:30.609Z,87.55
2018-05-08T00:52:39.720Z,87.46
2018-05-08T00:53:48.933Z,87.94
2018-05-08T00:54:57.770Z,88.8
2018-05-08T00:56:06.606Z,87.99
2018-05-08T00:57:15.442Z,88.76
2018-05-08T00:58:24.555Z,87.94
2018-05-08T00:59:33.544Z,87.9
2018-05-08T01:00:42.380Z,88.99
2018-05-08T01:01:51.220Z,88.37
2018-05-08T01:03:00.334Z,87.32
2018-05-08T01:04:09.167Z,88.13
2018-05-08T01:05:18.282Z,88.18
2018-05-08T01:06:27.121Z,88.66
2018-05-08T01:07:35.958Z,87.99
2018-05-08T01:08:44.793Z,89.23
2018-05-08T01:09:53.913Z,88.37
2018-05-08T01:11:02.750Z,88.18
2018-05-08T01:12:11.585Z,89.23
2018-05-08T01:13:20.694Z,88.37
2018-05-08T01:14:29.816Z,88.56
2018-05-08T01:15:38.656Z,88.85
2018-05-08T01:16:47.537Z,88.18
2018-05-08T01:17:56.374Z,88.76
2018-05-08T01:19:05.209Z,88.56
2018-05-08T01:20:14.322Z,88.47
2018-05-08T01:21:23.163Z,88.28
2018-05-08T01:22:32.000Z,88.18
2018-05-08T01:23:40.834Z,87.9
2018-05-08T01:24:49.669Z,88.47
2018-05-08T01:25:58.512Z,88.56
2018-05-08T01:27:07.625Z,88.76
2018-05-08T01:28:16.469Z,89.04
2018-05-08T01:29:25.306Z,89.72
2018-05-08T01:30:34.426Z,89.72
2018-05-08T01:31:43.639Z,88.95
2018-05-08T01:32:52.648Z,88.56
2018-05-08T01:34:01.633Z,88.76
2018-05-08T01:35:10.472Z,89.14
2018-05-08T01:36:19.583Z,89.14
2018-05-08T01:37:28.696Z,89.52
2018-05-08T01:38:37.533Z,89.33
2018-05-08T01:39:46.519Z,89.23
2018-05-08T01:40:55.355Z,89.04
2018-05-08T01:42:04.192Z,89.43
2018-05-08T01:43:13.313Z,89.81
2018-05-08T01:44:22.141Z,89.81
2018-05-08T01:45:31.429Z,89.62
2018-05-08T01:46:40.263Z,90.58
2018-05-08T01:47:49.099Z,90.15
2018-05-08T01:48:57.933Z,89.76
2018-05-08T01:50:06.765Z,91.01
2018-05-08T01:51:15.604Z,91.01
2018-05-08T01:52:24.443Z,89.48
2018-05-08T01:53:33.842Z,90.72
2018-05-08T01:54:43.236Z,90.91
2018-05-08T01:55:52.071Z,91.39
2018-05-08T01:57:01.007Z,91.77
2018-05-08T01:58:09.842Z,91.11
2018-05-08T01:59:18.678Z,91.49
2018-05-08T02:00:27.786Z,91.58
2018-05-08T02:01:36.623Z,91.77
2018-05-08T02:02:45.933Z,91.49
2018-05-08T02:03:55.324Z,91.49
2018-05-08T02:05:04.162Z,91.77
2018-05-08T02:06:12.997Z,91.97
2018-05-08T02:07:21.834Z,91.68
2018-05-08T02:08:30.818Z,91.58
2018-05-08T02:09:39.653Z,91.49
2018-05-08T02:10:48.486Z,90.53
2018-05-08T02:11:57.322Z,91.3
2018-05-08T02:13:06.159Z,92.35
2018-05-08T02:14:15.147Z,91.68
2018-05-08T02:15:24.263Z,92.44
2018-05-08T02:16:33.378Z,91.92
2018-05-08T02:17:42.488Z,92.35
2018-05-08T02:18:51.327Z,92.44
2018-05-08T02:20:00.162Z,92.83
2018-05-08T02:21:09.001Z,92.06
2018-05-08T02:22:17.836Z,91.83
2018-05-08T02:23:26.671Z,92.92
2018-05-08T02:24:35.505Z,92.54
2018-05-08T02:25:44.691Z,92.44
2018-05-08T02:26:53.526Z,92.88
2018-05-08T02:28:02.909Z,93.45
2018-05-08T02:29:12.026Z,92.4
2018-05-08T02:30:20.859Z,93.55
2018-05-08T02:31:30.321Z,93.35
2018-05-08T02:32:39.434Z,93.07
2018-05-08T02:33:48.267Z,93.26
2018-05-08T02:34:57.398Z,93.55
2018-05-08T02:36:07.067Z,93.84
2018-05-08T02:37:16.338Z,93.74
2018-05-08T02:38:25.452Z,93.64
2018-05-08T02:39:34.284Z,93.64
2018-05-08T02:40:43.685Z,94.5
2018-05-08T02:41:52.529Z,94.41
2018-05-08T02:43:01.645Z,95.07
2018-05-08T02:44:10.481Z,94.41
2018-05-08T02:45:19.874Z,94.41
2018-05-08T02:46:28.712Z,94.31
2018-05-08T02:47:38.101Z,94.5
2018-05-08T02:48:47.291Z,94.79
2018-05-08T02:49:56.408Z,94.5
2018-05-08T02:51:05.245Z,94.74
2018-05-08T02:52:14.082Z,94.26
2018-05-08T02:53:23.474Z,94.93
2018-05-08T02:54:32.861Z,94.84
2018-05-08T02:55:41.972Z,94.93
2018-05-08T02:56:50.811Z,94.84
2018-05-08T02:57:59.645Z,94.93
2018-05-08T02:59:08.483Z,94.7
2018-05-08T03:00:17.592Z,94.65
2018-05-08T03:01:26.994Z,94.74
2018-05-08T03:02:36.104Z,94.84
2018-05-08T03:03:45.498Z,94.55
2018-05-08T03:04:54.336Z,94.93
2018-05-08T03:06:03.891Z,94.84
2018-05-08T03:07:13.004Z,95.03
2018-05-08T03:08:22.398Z,94.46
2018-05-08T03:09:31.235Z,95.03
2018-05-08T03:10:40.618Z,94.84
2018-05-08T03:11:49.609Z,95.32
2018-05-08T03:12:58.514Z,95.7
2018-05-08T03:14:07.279Z,94.36
2018-05-08T03:15:16.391Z,94.17
2018-05-08T03:16:25.226Z,95.03
2018-05-08T03:17:34.060Z,94.84
2018-05-08T03:18:42.894Z,94.65
2018-05-08T03:19:51.730Z,94.65
2018-05-08T03:21:00.561Z,95.41
2018-05-08T03:22:09.396Z,95.32
2018-05-08T03:23:18.233Z,95.7
2018-05-08T03:24:27.342Z,95.03
2018-05-08T03:25:36.180Z,95.98
2018-05-08T03:26:45.015Z,95.51
2018-05-08T03:27:53.850Z,95.98
2018-05-08T03:29:02.786Z,96.18
2018-05-08T03:30:11.621Z,96.18
2018-05-08T03:31:20.463Z,95.32
2018-05-08T03:32:29.570Z,94.84
2018-05-08T03:33:38.692Z,95.79
2018-05-08T03:34:47.880Z,94.93
2018-05-08T03:35:56.992Z,95.51
2018-05-08T03:37:05.826Z,95.79
2018-05-08T03:38:14.671Z,95.79
2018-05-08T03:39:23.500Z,96.08
2018-05-08T03:40:33.083Z,95.89
2018-05-08T03:41:41.926Z,96.56
2018-05-08T03:42:50.758Z,96.27
2018-05-08T03:43:59.592Z,96.18
2018-05-08T03:45:08.428Z,95.7
2018-05-08T03:46:17.312Z,96.37
2018-05-08T03:47:26.144Z,95.79
2018-05-08T03:48:34.980Z,96.27
2018-05-08T03:49:43.815Z,97.04
2018-05-08T03:50:52.651Z,96.75
2018-05-08T03:52:01.488Z,96.75
2018-05-08T03:53:10.323Z,96.56
2018-05-08T03:54:19.160Z,96.66
2018-05-08T03:55:28.544Z,97.23
2018-05-08T03:56:37.385Z,96.8
2018-05-08T03:57:46.870Z,97.08
2018-05-08T03:58:55.706Z,97.04
2018-05-08T04:00:04.819Z,96.47
2018-05-08T04:01:13.656Z,96.89
2018-05-08T04:02:22.492Z,96.56
2018-05-08T04:03:31.377Z,96.61
2018-05-08T04:04:40.214Z,97.37
2018-05-08T04:05:49.049Z,96.94
2018-05-08T04:06:57.882Z,97.18
2018-05-08T04:08:06.717Z,97.47
2018-05-08T04:09:15.650Z,96.89
2018-05-08T04:10:24.773Z,97.37
2018-05-08T04:11:33.598Z,97.28
2018-05-08T04:12:42.708Z,97.94
2018-05-08T04:13:51.540Z,97.37
2018-05-08T04:15:00.793Z,97.94
2018-05-08T04:16:10.010Z,97.94
2018-05-08T04:17:18.839Z,97.56
2018-05-08T04:18:27.685Z,96.61
2018-05-08T04:19:36.521Z,97.23
2018-05-08T04:20:45.978Z,97.56
2018-05-08T04:21:55.095Z,97.37
2018-05-08T04:23:03.927Z,97.18
2018-05-08T04:24:12.764Z,98.04
2018-05-08T04:25:21.597Z,97.75
2018-05-08T04:26:30.782Z,96.99
2018-05-08T04:27:39.895Z,98.13
2018-05-08T04:28:48.732Z,97.08
2018-05-08T04:29:57.567Z,97.42
2018-05-08T04:31:06.675Z,97.85
2018-05-08T04:32:15.511Z,97.37
2018-05-08T04:33:24.347Z,97.94
2018-05-08T04:34:33.185Z,97.94
2018-05-08T04:35:42.298Z,97.85
2018-05-08T04:36:51.418Z,97.75
2018-05-08T04:38:00.790Z,97.75
2018-05-08T04:39:09.630Z,97.56
2018-05-08T04:40:18.476Z,97.75
2018-05-08T04:41:27.299Z,97.28
2018-05-08T04:42:36.134Z,97.33
2018-05-08T04:43:45.246Z,97.85
2018-05-08T04:44:54.082Z,97.99
2018-05-08T04:46:02.920Z,97.8
2018-05-08T04:47:11.756Z,97.99
2018-05-08T04:48:20.593Z,97.61
2018-05-08T04:49:29.851Z,97.75
2018-05-08T04:50:38.686Z,97.47
2018-05-08T04:51:47.520Z,97.94
2018-05-08T04:52:56.359Z,97.85
2018-05-08T04:54:05.470Z,97.61
2018-05-08T04:55:14.406Z,97.8
2018-05-08T04:56:23.241Z,97.99
2018-05-08T04:57:32.073Z,97.52
2018-05-08T04:58:40.909Z,97.13
2018-05-08T04:59:50.027Z,98.09
2018-05-08T05:00:59.145Z,97.8
2018-05-08T05:02:07.979Z,97.33
2018-05-08T05:03:17.098Z,97.42
2018-05-08T05:04:26.212Z,96.84
2018-05-08T05:05:35.047Z,97.13
2018-05-08T05:06:44.032Z,97.52
2018-05-08T05:07:53.187Z,97.42
2018-05-08T05:09:02.031Z,97.33
2018-05-08T05:10:11.143Z,96.75
2018-05-08T05:11:20.256Z,97.04
2018-05-08T05:12:29.371Z,97.13
2018-05-08T05:13:38.485Z,96.66
2018-05-08T05:14:47.322Z,97.04
2018-05-08T05:15:56.159Z,97.23
2018-05-08T05:17:04.996Z,96.75
2018-05-08T05:18:13.829Z,96.94
2018-05-08T05:19:22.668Z,96.94
2018-05-08T05:20:31.780Z,96.27
2018-05-08T05:21:40.895Z,96.94
2018-05-08T05:22:49.730Z,96.94
2018-05-08T05:23:58.890Z,96.47
2018-05-08T05:25:07.727Z,96.75
2018-05-08T05:26:16.561Z,97.04
2018-05-08T05:27:25.396Z,97.13
2018-05-08T05:28:34.506Z,96.94
2018-05-08T05:29:43.338Z,96.84
2018-05-08T05:30:52.174Z,96.94
2018-05-08T05:32:01.008Z,96.42
2018-05-08T05:33:10.126Z,96.32
2018-05-08T05:34:18.961Z,96.22
2018-05-08T05:35:27.798Z,95.94
2018-05-08T05:36:36.633Z,96.22
2018-05-08T05:37:45.470Z,95.94
2018-05-08T05:38:54.306Z,96.13
2018-05-08T05:40:03.430Z,96.13
2018-05-08T05:41:12.371Z,96.13
2018-05-08T05:42:21.205Z,96.03
2018-05-08T05:43:30.101Z,96.22
2018-05-08T05:44:38.936Z,95.75
2018-05-08T05:45:48.047Z,95.94
2018-05-08T05:46:57.234Z,95.75
2018-05-08T05:48:06.069Z,96.18
2018-05-08T05:49:14.949Z,95.89
2018-05-08T05:50:23.784Z,95.79
2018-05-08T05:51:32.622Z,95.79
2018-05-08T05:52:41.733Z,95.65
2018-05-08T05:53:50.575Z,95.36
2018-05-08T05:54:59.411Z,95.31
2018-05-08T05:56:08.246Z,95.22
2018-05-08T05:57:17.078Z,95.89
2018-05-08T05:58:26.061Z,95.12
2018-05-08T05:59:34.897Z,95.12
2018-05-08T06:00:43.733Z,94.93
2018-05-08T06:01:52.850Z,95.12
2018-05-08T06:03:01.689Z,94.84
2018-05-08T06:04:11.129Z,94.84
2018-05-08T06:05:19.962Z,94.07
2018-05-08T06:06:28.821Z,94.74
2018-05-08T06:07:38.018Z,94.84
2018-05-08T06:08:47.127Z,94.74
2018-05-08T06:09:56.164Z,95.36
2018-05-08T06:11:05.003Z,95.41
2018-05-08T06:12:13.856Z,94.89
2018-05-08T06:13:22.676Z,95.17
2018-05-08T06:14:31.514Z,94.79
2018-05-08T06:15:40.600Z,94.79
2018-05-08T06:16:49.437Z,94.98
2018-05-08T06:17:58.597Z,95.07
2018-05-08T06:19:07.433Z,95.65
2018-05-08T06:20:16.372Z,94.98
2018-05-08T06:21:25.535Z,94.21
2018-05-08T06:22:34.646Z,95.07
2018-05-08T06:23:43.485Z,94.4
2018-05-08T06:24:52.930Z,94.4
2018-05-08T06:26:02.052Z,94.4
2018-05-08T06:27:11.238Z,94.6
2018-05-08T06:28:20.077Z,92.44
2018-05-08T06:29:29.203Z,92.25
2018-05-08T06:30:38.340Z,92.06
2018-05-08T06:31:47.174Z,91.86
2018-05-08T06:32:56.286Z,91.39
2018-05-08T06:34:05.396Z,91.67
2018-05-08T06:35:14.230Z,90.95
2018-05-08T06:36:23.342Z,91.34
2018-05-08T06:37:32.179Z,90.57
2018-05-08T06:38:41.167Z,89.9
2018-05-08T06:39:50.281Z,90
2018-05-08T06:40:59.118Z,89.61
2018-05-08T06:42:07.994Z,89.71
2018-05-08T06:43:16.797Z,89.71
2018-05-08T06:44:25.634Z,89.04
2018-05-08T06:45:34.472Z,89.23
2018-05-08T06:46:43.365Z,90
2018-05-08T06:47:52.142Z,90
2018-05-08T06:49:00.982Z,89.9
2018-05-08T06:50:09.971Z,89.51
2018-05-08T06:51:18.813Z,90.09
2018-05-08T06:52:27.924Z,90.19
2018-05-08T06:53:36.760Z,91.34
2018-05-08T06:54:45.600Z,91.24
2018-05-08T06:55:55.017Z,90.19
2018-05-08T06:57:03.848Z,90.19
2018-05-08T06:58:12.688Z,90.61
2018-05-08T06:59:21.795Z,91.24
2018-05-08T07:00:30.630Z,90.04
2018-05-08T07:01:39.916Z,89.47
2018-05-08T07:02:48.755Z,89.56
2018-05-08T07:03:57.862Z,89.56
2018-05-08T07:05:06.977Z,89.47
2018-05-08T07:06:15.805Z,89.47
2018-05-08T07:07:24.741Z,88.98
2018-05-08T07:08:33.580Z,89.12
2018-05-08T07:09:42.691Z,88.02
2018-05-08T07:10:51.529Z,87.78
2018-05-08T07:12:00.369Z,87.68
2018-05-08T07:13:09.460Z,86.92
2018-05-08T07:14:18.297Z,87.68
2018-05-08T07:15:27.133Z,87.68
2018-05-08T07:16:35.965Z,87.68
2018-05-08T07:17:45.088Z,87.49
2018-05-08T07:18:54.528Z,87.78
2018-05-08T07:20:03.642Z,87.01
2018-05-08T07:21:12.759Z,87.11
2018-05-08T07:22:21.595Z,86.63
2018-05-08T07:23:30.715Z,86.48
2018-05-08T07:24:40.150Z,85.91
2018-05-08T07:25:49.042Z,86.29
2018-05-08T07:26:58.157Z,86.77
2018-05-08T07:28:06.995Z,86.68
2018-05-08T07:29:15.835Z,86.58
2018-05-08T07:30:25.098Z,86.96
2018-05-08T07:31:33.940Z,87.73
2018-05-08T07:32:42.775Z,86.58
2018-05-08T07:33:51.611Z,87.35
2018-05-08T07:35:00.450Z,87.15
2018-05-08T07:36:09.291Z,87.15
2018-05-08T07:37:18.127Z,86.1
2018-05-08T07:38:26.965Z,86.38
2018-05-08T07:39:35.955Z,86.29
2018-05-08T07:40:44.793Z,86.38
2018-05-08T07:41:53.784Z,86.77
2018-05-08T07:43:02.621Z,86.62
2018-05-08T07:44:11.458Z,88.35
2018-05-08T07:45:20.621Z,87.77
2018-05-08T07:46:29.698Z,86.52
2018-05-08T07:47:39.266Z,86.62
2018-05-08T07:48:48.104Z,86.24
2018-05-08T07:49:57.216Z,85.66
2018-05-08T07:51:06.328Z,85.37
2018-05-08T07:52:15.173Z,86.05
2018-05-08T07:53:24.055Z,85.37
2018-05-08T07:54:32.895Z,85.37
2018-05-08T07:55:41.730Z,85.47
2018-05-08T07:56:50.844Z,86.28
2018-05-08T07:57:59.953Z,86.38
2018-05-08T07:59:09.427Z,85.22
2018-05-08T08:00:18.265Z,85.41
2018-05-08T08:01:27.103Z,85.99
2018-05-08T08:02:36.217Z,85.89
2018-05-08T08:03:45.329Z,84.26
2018-05-08T08:04:54.593Z,84.11
2018-05-08T08:06:03.432Z,84.69
2018-05-08T08:07:12.546Z,82.38
2018-05-08T08:08:21.385Z,82.76
2018-05-08T08:09:30.229Z,82.19
2018-05-08T08:10:39.443Z,81.9
2018-05-08T08:11:48.553Z,81.9
2018-05-08T08:12:57.674Z,81.37
2018-05-08T08:14:06.511Z,80.88
2018-05-08T08:15:15.354Z,81.27
2018-05-08T08:16:24.341Z,81.37
2018-05-08T08:17:33.180Z,81.46
2018-05-08T08:18:42.398Z,80.02
2018-05-08T08:19:51.518Z,80.98
2018-05-08T08:21:00.351Z,79.73
2018-05-08T08:22:09.564Z,79.35
2018-05-08T08:23:18.401Z,78.13
2018-05-08T08:24:27.523Z,78.33
2018-05-08T08:25:36.637Z,77.65
2018-05-08T08:26:45.751Z,78.23
2018-05-08T08:27:54.742Z,77.75
2018-05-08T08:29:03.579Z,77.08
2018-05-08T08:30:12.417Z,77.75
2018-05-08T08:31:21.255Z,78.52
2018-05-08T08:32:30.094Z,78.81
2018-05-08T08:33:39.358Z,78.42
2018-05-08T08:34:48.200Z,76.98
2018-05-08T08:35:57.040Z,76.59
2018-05-08T08:37:06.152Z,75.86
2018-05-08T08:38:14.991Z,75.28
2018-05-08T08:39:24.091Z,73.84
2018-05-08T08:40:33.229Z,73.55
2018-05-08T08:41:42.318Z,74.03
2018-05-08T08:42:51.158Z,75.38
2018-05-08T08:43:59.997Z,74.41
2018-05-08T08:45:08.835Z,73.26
2018-05-08T08:46:17.675Z,73.1
2018-05-08T08:47:26.515Z,72.72
2018-05-08T08:48:36.115Z,71.47
2018-05-08T08:49:44.952Z,71.08
2018-05-08T08:50:53.841Z,70.54
2018-05-08T08:52:02.688Z,70.73
2018-05-08T08:53:11.520Z,71.22
2018-05-08T08:54:20.362Z,71.31
2018-05-08T08:55:29.203Z,71.02
2018-05-08T08:56:38.317Z,70.64
2018-05-08T08:57:47.156Z,71.6
2018-05-08T08:58:55.995Z,71.31
2018-05-08T09:00:04.833Z,70.06
2018-05-08T09:01:13.674Z,69.29
2018-05-08T09:02:22.789Z,69.57
2018-05-08T09:03:31.907Z,68.32
2018-05-08T09:04:40.757Z,67.36
2018-05-08T09:05:49.871Z,66.62
2018-05-08T09:06:58.985Z,67
2018-05-08T09:08:07.874Z,68.93
2018-05-08T09:09:17.069Z,68.16
2018-05-08T09:10:25.908Z,65.75
2018-05-08T09:11:35.027Z,66.43
2018-05-08T09:12:44.139Z,65.66
2018-05-08T09:13:52.980Z,66.33
2018-05-08T09:15:01.821Z,64.92
2018-05-08T09:16:11.025Z,64.34
2018-05-08T09:17:19.864Z,65.01
2018-05-08T09:18:28.702Z,65.69
2018-05-08T09:19:37.956Z,65.88
2018-05-08T09:20:46.761Z,64.43
2018-05-08T09:21:55.600Z,64.53
2018-05-08T09:23:04.437Z,65.3
2018-05-08T09:24:13.281Z,65.88
2018-05-08T09:25:22.221Z,65.11
2018-05-08T09:26:31.061Z,65.69
2018-05-08T09:27:39.914Z,65.2
2018-05-08T09:28:49.377Z,65.14
2018-05-08T09:29:58.218Z,64.37
2018-05-08T09:31:07.157Z,65.63
2018-05-08T09:32:15.994Z,65.63
2018-05-08T09:33:24.835Z,65.14
2018-05-08T09:34:33.675Z,65.05
2018-05-08T09:35:42.513Z,64.56
2018-05-08T09:36:51.453Z,65.53
2018-05-08T09:38:00.846Z,64.89
2018-05-08T09:39:09.973Z,62.92
2018-05-08T09:40:19.092Z,62.63
2018-05-08T09:41:27.931Z,62.82
2018-05-08T09:42:37.221Z,62.92
2018-05-08T09:43:46.062Z,63.7
2018-05-08T09:44:54.899Z,63.12
2018-05-08T09:46:03.742Z,63.12
2018-05-08T09:47:12.586Z,63.89
2018-05-08T09:48:21.527Z,63.4
2018-05-08T09:49:30.367Z,63.98
2018-05-08T09:50:39.208Z,63.79
2018-05-08T09:51:48.415Z,63.98
2018-05-08T09:52:57.259Z,63.34
2018-05-08T09:54:06.436Z,62.34
2018-05-08T09:55:15.650Z,61.8
2018-05-08T09:56:24.498Z,63.15
2018-05-08T09:57:33.333Z,61.8
2018-05-08T09:58:42.172Z,62.37
2018-05-08T09:59:51.109Z,62.28
2018-05-08T10:00:59.963Z,61.31
2018-05-08T10:02:09.367Z,60.93
2018-05-08T10:03:18.485Z,61.02
2018-05-08T10:04:27.328Z,60.67
2018-05-08T10:05:36.621Z,60.47
2018-05-08T10:06:45.567Z,60.76
2018-05-08T10:07:55.013Z,61.31
2018-05-08T10:09:03.853Z,60.67
2018-05-08T10:10:12.693Z,60.38
2018-05-08T10:11:21.859Z,59.89
2018-05-08T10:12:30.973Z,59.7
2018-05-08T10:13:39.815Z,59.99
2018-05-08T10:14:48.942Z,59.7
2018-05-08T10:15:58.058Z,59.7
2018-05-08T10:17:07.180Z,59.41
2018-05-08T10:18:16.026Z,60.21
2018-05-08T10:19:24.867Z,59.89
2018-05-08T10:20:34.153Z,59.05
2018-05-08T10:21:43.605Z,59.05
2018-05-08T10:22:52.546Z,57.89
2018-05-08T10:24:01.391Z,58.57
2018-05-08T10:25:10.513Z,58.57
2018-05-08T10:26:19.629Z,58.37
2018-05-08T10:27:28.469Z,58.37
2018-05-08T10:28:37.939Z,57.79
2018-05-08T10:29:46.788Z,58.67
2018-05-08T10:30:55.619Z,55.51
2018-05-08T10:32:04.459Z,54.73
2018-05-08T10:33:13.301Z,55.7
2018-05-08T10:34:22.614Z,54.99
2018-05-08T10:35:31.452Z,54.41
2018-05-08T10:36:40.294Z,54.44
2018-05-08T10:37:49.411Z,54.05
2018-05-08T10:38:58.253Z,55.31
2018-05-08T10:40:07.521Z,54.25
2018-05-08T10:41:16.363Z,54.44
2018-05-08T10:42:25.478Z,53.77
2018-05-08T10:43:34.319Z,54.15
2018-05-08T10:44:43.161Z,54.15
2018-05-08T10:45:52.050Z,55.21
2018-05-08T10:47:00.892Z,55.7
2018-05-08T10:48:09.732Z,55.99
2018-05-08T10:49:18.574Z,54.63
2018-05-08T10:50:27.419Z,54.57
2018-05-08T10:51:36.409Z,54.15
2018-05-08T10:52:45.250Z,53.69
2018-05-08T10:53:54.091Z,51.37
2018-05-08T10:55:02.934Z,51.37
2018-05-08T10:56:11.774Z,50.89
2018-05-08T10:57:21.067Z,52.05
2018-05-08T10:58:29.908Z,50.7
2018-05-08T10:59:38.750Z,51.56
2018-05-08T11:00:47.589Z,51.18
2018-05-08T11:01:56.436Z,51.66
2018-05-08T11:03:05.874Z,51.28
2018-05-08T11:04:14.714Z,50.33
2018-05-08T11:05:23.563Z,49.73
2018-05-08T11:06:32.404Z,50.52
2018-05-08T11:07:41.295Z,49.65
2018-05-08T11:08:50.671Z,50.92
2018-05-08T11:09:59.512Z,48.88
2018-05-08T11:11:08.357Z,49.65
2018-05-08T11:12:17.411Z,49.85
2018-05-08T11:13:26.273Z,50.33
2018-05-08T11:14:35.272Z,50.94
2018-05-08T11:15:44.692Z,49.1
2018-05-08T11:16:53.534Z,49.97
2018-05-08T11:18:02.549Z,48.61
2018-05-08T11:19:11.656Z,48.03
2018-05-08T11:20:20.963Z,47.74
2018-05-08T11:21:30.075Z,48.13
2018-05-08T11:22:38.921Z,47.16
2018-05-08T11:23:48.324Z,48.42
2018-05-08T11:24:57.163Z,48.83
2018-05-08T11:26:06.460Z,47.96
2018-05-08T11:27:15.305Z,47.28
2018-05-08T11:28:24.149Z,47.28
2018-05-08T11:29:33.617Z,46.7
2018-05-08T11:30:43.014Z,46.02
2018-05-08T11:31:51.858Z,46.41
2018-05-08T11:33:00.975Z,46.12
2018-05-08T11:34:09.823Z,46.12
2018-05-08T11:35:18.670Z,46.22
2018-05-08T11:36:27.509Z,45.34
2018-05-08T11:37:36.401Z,45.54
2018-05-08T11:38:45.244Z,44.96
2018-05-08T11:39:54.089Z,45.25
2018-05-08T11:41:03.214Z,45.17
2018-05-08T11:42:12.057Z,45.07
2018-05-08T11:43:21.000Z,45.64
2018-05-08T11:44:29.843Z,44.3
2018-05-08T11:45:38.973Z,42.65
2018-05-08T11:46:48.396Z,42.65
2018-05-08T11:47:57.211Z,42.85
2018-05-08T11:49:06.125Z,42.55
2018-05-08T11:50:15.250Z,41.58
2018-05-08T11:51:24.367Z,42.07
2018-05-08T11:52:33.213Z,41.88
2018-05-08T11:53:42.335Z,41.89
2018-05-08T11:54:51.278Z,42.77
2018-05-08T11:56:00.121Z,40.15
2018-05-08T11:57:08.963Z,41.51
2018-05-08T11:58:18.111Z,40.92
2018-05-08T11:59:27.393Z,40.17
2018-05-08T12:00:36.391Z,39.76
2018-05-08T12:01:45.508Z,40.34
2018-05-08T12:02:54.361Z,39.88
2018-05-08T12:04:03.216Z,41.63
2018-05-08T12:05:12.143Z,40.75
2018-05-08T12:06:21.390Z,39.01
2018-05-08T12:07:30.517Z,39.2
2018-05-08T12:08:39.366Z,39.59
2018-05-08T12:09:48.210Z,39.61
2018-05-08T12:10:57.068Z,40.58
2018-05-08T12:12:05.914Z,40.29
2018-05-08T12:13:14.761Z,39.51
2018-05-08T12:14:23.609Z,37.96
2018-05-08T12:15:32.824Z,37.86
2018-05-08T12:16:41.956Z,37.86
2018-05-08T12:17:51.243Z,38.06
2018-05-08T12:19:00.364Z,37.37
2018-05-08T12:20:09.490Z,36.69
2018-05-08T12:21:18.337Z,36.6
2018-05-08T12:22:27.472Z,37.78
2018-05-08T12:23:36.472Z,38.25
2018-05-08T12:24:45.328Z,37.68
2018-05-08T12:25:54.451Z,36.13
2018-05-08T12:27:03.304Z,34.87
2018-05-08T12:28:12.435Z,33.9
2018-05-08T12:29:21.709Z,33.9
2018-05-08T12:30:30.566Z,34.87
2018-05-08T12:31:39.707Z,35.94
2018-05-08T12:32:48.840Z,35.08
2018-05-08T12:33:57.694Z,35.84
2018-05-08T12:35:06.922Z,36.81
2018-05-08T12:36:15.826Z,36.71
2018-05-08T12:37:25.040Z,36.15
2018-05-08T12:38:33.890Z,37.8
2018-05-08T12:39:43.034Z,37.12
2018-05-08T12:40:55.580Z,37.51
2018-05-08T12:42:04.811Z,37.41
2018-05-08T12:43:13.891Z,36.73
2018-05-08T12:44:22.747Z,36.24
2018-05-08T12:45:32.490Z,36.05
2018-05-08T12:46:41.692Z,36.73
2018-05-08T12:47:50.548Z,37.01
2018-05-08T12:48:59.411Z,38.17
2018-05-08T12:50:08.268Z,37.2
2018-05-08T12:51:17.117Z,37.2
2018-05-08T12:52:26.151Z,37.98
2018-05-08T12:53:35.839Z,38.09
2018-05-08T12:54:45.252Z,37.51
2018-05-08T12:55:54.107Z,37.41
2018-05-08T12:57:03.259Z,36.85
2018-05-08T12:58:12.109Z,36.75
2018-05-08T12:59:21.242Z,38.21
2018-05-08T13:00:30.658Z,38.01
2018-05-08T13:01:39.847Z,38.4
2018-05-08T13:02:48.984Z,39.18
2018-05-08T13:03:57.885Z,38.42
2018-05-08T13:05:06.752Z,38.6
2018-05-08T13:06:15.616Z,37.62
2018-05-08T13:07:24.463Z,38.11
2018-05-08T13:08:33.316Z,38.11
2018-05-08T13:09:42.601Z,38.31
2018-05-08T13:10:51.526Z,38.01
2018-05-08T13:12:00.961Z,37.43
2018-05-08T13:13:10.269Z,36.55
2018-05-08T13:14:19.565Z,35.49
2018-05-08T13:15:28.979Z,34.63
2018-05-08T13:16:37.830Z,32.97
2018-05-08T13:17:46.681Z,34.33
2018-05-08T13:18:55.632Z,34.82
2018-05-08T13:20:04.764Z,33.36
2018-05-08T13:21:13.622Z,32.4
2018-05-08T13:22:22.476Z,33.2
2018-05-08T13:23:31.353Z,33.11
2018-05-08T13:24:40.445Z,33.59
2018-05-08T13:25:49.323Z,33.59
2018-05-08T13:26:58.906Z,31.93
2018-05-08T13:28:08.057Z,31.37
2018-05-08T13:29:16.913Z,31.93
2018-05-08T13:30:25.767Z,32.71
2018-05-08T13:31:35.200Z,33.49
2018-05-08T13:32:44.512Z,31.74
2018-05-08T13:33:53.812Z,31.74
2018-05-08T13:35:02.935Z,30.28
2018-05-08T13:36:11.791Z,31.54
2018-05-08T13:37:20.651Z,31.25
2018-05-08T13:38:29.507Z,30.98
2018-05-08T13:39:38.360Z,31.56
2018-05-08T13:40:47.305Z,32.34
2018-05-08T13:41:56.271Z,32.15
2018-05-08T13:43:05.382Z,32.84
2018-05-08T13:44:14.239Z,32.65
2018-05-08T13:45:23.100Z,31.66
2018-05-08T13:46:31.967Z,32.06
2018-05-08T13:47:40.823Z,33.02
2018-05-08T13:48:49.687Z,31.09
2018-05-08T13:49:58.742Z,32.16
2018-05-08T13:51:07.603Z,32.94
2018-05-08T13:52:16.465Z,31.87
2018-05-08T13:53:25.322Z,31.38
2018-05-08T13:54:34.178Z,31.28
2018-05-08T13:55:43.661Z,31.96
2018-05-08T13:56:52.522Z,32.84
2018-05-08T13:58:01.656Z,32.18
2018-05-08T13:59:10.514Z,31.7
2018-05-08T14:00:19.372Z,31.22
2018-05-08T14:01:28.278Z,30.63
2018-05-08T14:02:37.135Z,31.88
2018-05-08T14:03:45.988Z,31.31
2018-05-08T14:04:55.121Z,31.8
2018-05-08T14:06:04.248Z,31.02
2018-05-08T14:07:13.217Z,30.06
2018-05-08T14:08:22.073Z,30.45
2018-05-08T14:09:30.933Z,30.94
2018-05-08T14:10:40.069Z,31.25
2018-05-08T14:11:49.480Z,30.57
2018-05-08T14:12:58.594Z,30.09
2018-05-08T14:14:07.727Z,30.86
2018-05-08T14:15:16.864Z,31.54
2018-05-08T14:16:25.720Z,29.2
2018-05-08T14:17:34.575Z,29.1
2018-05-08T14:18:43.531Z,29.49
2018-05-08T14:19:52.389Z,29.2
2018-05-08T14:21:01.264Z,29.59
2018-05-08T14:22:10.404Z,30.08
2018-05-08T14:23:19.262Z,30.47
2018-05-08T14:24:28.500Z,29.02
2018-05-08T14:25:37.912Z,28.64
2018-05-08T14:26:46.763Z,29.61
2018-05-08T14:27:55.622Z,29.71
2018-05-08T14:29:04.482Z,28.85
2018-05-08T14:30:13.345Z,28.83
2018-05-08T14:31:22.773Z,29.71
2018-05-08T14:32:31.512Z,29.42
2018-05-08T14:33:40.368Z,28.44
2018-05-08T14:34:49.774Z,28.82
2018-05-08T14:35:58.987Z,27.08
2018-05-08T14:37:08.228Z,27.66
2018-05-08T14:38:16.987Z,27.86
2018-05-08T14:39:26.507Z,27.19
2018-05-08T14:40:35.357Z,25.92
2018-05-08T14:41:44.213Z,25.82
2018-05-08T14:42:53.072Z,26.6
2018-05-08T14:44:02.202Z,27.86
2018-05-08T14:45:11.059Z,26.5
2018-05-08T14:46:20.192Z,27.27
2018-05-08T14:47:29.102Z,26.78
2018-05-08T14:48:38.790Z,27.17
2018-05-08T14:49:47.640Z,26.88
2018-05-08T14:50:57.109Z,27.77
2018-05-08T14:52:05.967Z,27.31